createdAt,value
2022-08-16T00:01:47.804Z,100197.44
2022-08-16T00:06:51.988Z,100203.34
2022-08-16T00:11:55.596Z,100216.53
2022-08-16T00:17:15.866Z,100213.38
2022-08-16T00:22:21.271Z,100211.06
2022-08-16T00:27:31.386Z,100205.56
2022-08-16T00:32:33.728Z,100210.53
2022-08-16T00:37:56.776Z,100221.84
2022-08-16T00:42:58.979Z,100211.09
2022-08-16T00:48:03.140Z,100205.94
2022-08-16T00:53:25.410Z,100207.44
2022-08-16T00:58:34.614Z,100216.63
2022-08-16T01:03:41.550Z,100210.97
2022-08-16T01:08:47.185Z,100224.38
2022-08-16T01:13:59.301Z,100219.50
2022-08-16T01:19:11.276Z,100221.69
2022-08-16T01:24:52.467Z,100228.44
2022-08-16T01:29:56.876Z,100224.06
2022-08-16T01:35:02.162Z,100224.25
2022-08-16T01:40:07.709Z,100234.28
2022-08-16T01:45:10.411Z,100238.09
2022-08-16T01:50:42.063Z,100235.09
2022-08-16T01:55:37.520Z,100246.75
2022-08-16T02:00:43.102Z,100253.97
2022-08-16T02:05:51.969Z,100257.75
2022-08-16T02:10:55.815Z,100249.63
2022-08-16T02:15:58.247Z,100241.81
2022-08-16T02:21:00.909Z,100244.97
2022-08-16T02:26:05.260Z,100241.94
2022-08-16T02:31:10.348Z,100249.06
2022-08-16T02:36:49.703Z,100253.72
2022-08-16T02:41:40.252Z,100258.22
2022-08-16T02:46:49.952Z,100251.56
2022-08-16T02:51:53.445Z,100243.19
2022-08-16T02:56:56.821Z,100245.63
2022-08-16T03:01:59.110Z,100260.13
2022-08-16T03:07:01.141Z,100263.91
2022-08-16T03:12:08.040Z,100260.00
2022-08-16T03:17:09.921Z,100265.69
2022-08-16T03:22:11.947Z,100275.59
2022-08-16T03:27:23.281Z,100270.59
2022-08-16T03:32:25.171Z,100271.91
2022-08-16T03:37:28.740Z,100276.59
2022-08-16T03:42:32.177Z,100280.13
2022-08-16T03:47:34.552Z,100279.69
2022-08-16T03:52:36.965Z,100289.66
2022-08-16T03:57:52.099Z,100294.06
2022-08-16T04:02:56.704Z,100288.78
2022-08-16T04:07:58.746Z,100300.59
2022-08-16T04:13:04.475Z,100297.25
2022-08-16T04:18:06.884Z,100299.06
2022-08-16T04:23:09.605Z,100305.56
2022-08-16T04:28:51.989Z,100312.59
2022-08-16T04:33:34.927Z,100312.78
2022-08-16T04:38:37.274Z,100314.38
2022-08-16T04:43:43.570Z,100311.91
2022-08-16T04:48:45.802Z,100317.38
2022-08-16T04:53:49.139Z,100314.16
2022-08-16T04:58:52.987Z,100326.41
2022-08-16T05:04:01.756Z,100326.13
2022-08-16T05:09:06.136Z,100320.88
2022-08-16T05:14:09.873Z,100319.94
2022-08-16T05:19:16.395Z,100329.97
2022-08-16T05:24:22.198Z,100337.31
2022-08-16T05:29:57.707Z,100344.50
2022-08-16T05:34:50.415Z,100345.84
2022-08-16T05:39:55.492Z,100342.84
2022-08-16T05:44:59.216Z,100344.03
2022-08-16T05:50:01.349Z,100352.31
2022-08-16T05:55:05.824Z,100351.13
2022-08-16T06:00:11.011Z,100361.16
2022-08-16T06:05:14.644Z,100370.72
2022-08-16T06:10:31.953Z,100369.69
2022-08-16T06:15:36.576Z,100379.00
2022-08-16T06:20:55.282Z,100384.69
2022-08-16T06:25:58.596Z,100385.66
2022-08-16T06:31:02.249Z,100386.94
2022-08-16T06:36:08.403Z,100384.47
2022-08-16T06:41:13.577Z,100379.00
2022-08-16T06:46:31.353Z,100383.34
2022-08-16T06:51:45.773Z,100391.84
2022-08-16T06:56:52.374Z,100397.59
2022-08-16T07:01:58.343Z,100412.56
2022-08-16T07:07:00.912Z,100408.31
2022-08-16T07:12:05.440Z,100421.25
2022-08-16T07:17:11.436Z,100424.09
2022-08-16T07:22:36.590Z,100430.50
2022-08-16T07:27:38.086Z,100431.19
2022-08-16T07:32:41.660Z,100433.50
2022-08-16T07:37:53.957Z,100431.28
2022-08-16T07:42:55.725Z,100437.34
2022-08-16T07:47:59.056Z,100434.88
2022-08-16T07:53:13.849Z,100444.88
2022-08-16T07:58:18.338Z,100439.69
2022-08-16T08:03:39.911Z,100444.97
2022-08-16T08:08:50.198Z,100442.94
2022-08-16T08:13:56.804Z,100454.69
2022-08-16T08:19:02.511Z,100451.66
2022-08-16T08:24:05.034Z,100458.00
2022-08-16T08:29:11.897Z,100470.28
2022-08-16T08:34:15.283Z,100466.22
2022-08-16T08:39:20.868Z,100460.34
2022-08-16T08:44:28.949Z,100466.44
2022-08-16T08:49:46.719Z,100469.31
2022-08-16T08:54:56.843Z,100459.28
2022-08-16T08:59:58.963Z,100467.44
2022-08-16T09:05:02.102Z,100468.97
2022-08-16T09:10:20.869Z,100480.19
2022-08-16T09:15:24.031Z,100474.78
2022-08-16T09:20:27.719Z,100482.22
2022-08-16T09:25:34.269Z,100484.66
2022-08-16T09:30:44.185Z,100481.31
2022-08-16T09:35:53.734Z,100476.91
2022-08-16T09:40:56.625Z,100469.69
2022-08-16T09:46:01.462Z,100457.47
2022-08-16T09:51:06.227Z,100460.00
2022-08-16T09:56:14.829Z,100461.59
2022-08-16T10:01:19.995Z,100449.81
2022-08-16T10:06:24.889Z,100457.63
2022-08-16T10:11:26.661Z,100463.53
2022-08-16T10:16:30.844Z,100463.06
2022-08-16T10:21:34.664Z,100452.28
2022-08-16T10:27:16.138Z,100455.59
2022-08-16T10:31:59.088Z,100441.56
2022-08-16T10:37:03.735Z,100453.06
2022-08-16T10:42:05.973Z,100453.16
2022-08-16T10:47:07.792Z,100451.34
2022-08-16T10:52:18.337Z,100443.97
2022-08-16T10:57:21.257Z,100445.84
2022-08-16T11:02:58.780Z,100446.31
2022-08-16T11:07:52.421Z,100446.25
2022-08-16T11:12:56.438Z,100446.75
2022-08-16T11:23:22.322Z,100449.44
2022-08-16T11:33:55.031Z,100452.38
2022-08-16T11:38:59.753Z,100463.63
2022-08-16T11:44:02.594Z,100451.06
2022-08-16T11:49:11.227Z,100457.41
2022-08-16T11:54:20.897Z,100452.50
2022-08-16T11:59:28.497Z,100450.34
2022-08-16T12:04:31.528Z,100458.47
2022-08-16T12:09:35.108Z,100466.72
2022-08-16T12:14:41.864Z,100455.81
2022-08-16T12:19:48.082Z,100463.28
2022-08-16T12:24:52.646Z,100455.75
2022-08-16T12:29:55.004Z,100460.97
2022-08-16T12:35:01.492Z,100462.97
2022-08-16T12:40:08.566Z,100454.56
2022-08-16T12:45:28.547Z,100459.75
2022-08-16T12:50:32.992Z,100455.63
2022-08-16T12:55:41.777Z,100460.31
2022-08-16T13:00:44.054Z,100447.75
2022-08-16T13:05:55.483Z,100447.88
2022-08-16T13:10:59.762Z,100447.81
2022-08-16T13:16:15.495Z,100447.38
2022-08-16T13:21:23.365Z,100441.38
2022-08-16T13:26:27.664Z,100445.47
2022-08-16T13:31:29.605Z,100441.97
2022-08-16T13:36:48.550Z,100453.78
2022-08-16T13:41:53.841Z,100456.63
2022-08-16T13:46:56.436Z,100453.41
2022-08-16T13:51:58.213Z,100452.53
2022-08-16T13:57:02.729Z,100441.16
2022-08-16T14:02:07.451Z,100442.94
2022-08-16T14:07:12.872Z,100447.41
2022-08-16T14:12:25.847Z,100437.69
2022-08-16T14:17:29.013Z,100437.00
2022-08-16T14:22:34.913Z,100450.44
2022-08-16T14:27:43.413Z,100451.47
2022-08-16T14:32:48.150Z,100442.97
2022-08-16T14:37:57.127Z,100450.22
2022-08-16T14:43:06.975Z,100444.38
2022-08-16T14:48:09.441Z,100447.06
2022-08-16T14:53:11.188Z,100441.59
2022-08-16T14:58:19.564Z,100432.97
2022-08-16T15:03:21.667Z,100438.19
2022-08-16T15:08:36.109Z,100431.31
2022-08-16T15:13:40.766Z,100435.47
2022-08-16T15:18:42.629Z,100436.44
2022-08-16T15:23:48.568Z,100434.66
2022-08-16T15:28:52.717Z,100434.75
2022-08-16T15:33:56.727Z,100428.25
2022-08-16T15:39:07.807Z,100431.94
2022-08-16T15:44:25.692Z,100435.19
2022-08-16T15:49:34.720Z,100435.78
2022-08-16T15:54:53.442Z,100437.25
2022-08-16T16:00:15.038Z,100437.31
2022-08-16T16:05:17.843Z,100438.66
2022-08-16T16:10:20.176Z,100441.28
2022-08-16T16:15:32.613Z,100438.81
2022-08-16T16:20:35.052Z,100443.97
2022-08-16T16:25:43.918Z,100444.16
2022-08-16T16:30:47.911Z,100447.97
2022-08-16T16:35:55.479Z,100439.16
2022-08-16T16:41:00.759Z,100445.66
2022-08-16T16:46:05.864Z,100443.22
2022-08-16T16:51:28.094Z,100453.13
2022-08-16T16:56:37.284Z,100453.63
2022-08-16T17:01:59.093Z,100460.78
2022-08-16T17:07:10.685Z,100455.34
2022-08-16T17:12:17.660Z,100466.06
2022-08-16T17:17:29.676Z,100461.78
2022-08-16T17:22:32.974Z,100467.66
2022-08-16T17:27:35.611Z,100468.69
2022-08-16T17:32:47.802Z,100469.84
2022-08-16T17:37:52.500Z,100482.94
2022-08-16T17:42:57.059Z,100484.34
2022-08-16T17:48:00.403Z,100488.59
2022-08-16T17:53:04.171Z,100500.31
2022-08-16T17:58:21.264Z,100495.66
2022-08-16T18:04:03.183Z,100495.84
2022-08-16T18:09:00.343Z,100504.41
2022-08-16T18:14:05.755Z,100509.53
2022-08-16T18:19:10.025Z,100503.63
2022-08-16T18:24:14.262Z,100516.28
2022-08-16T18:29:17.207Z,100517.00
2022-08-16T18:34:20.752Z,100516.13
2022-08-16T18:39:23.130Z,100528.66
2022-08-16T18:44:30.105Z,100515.81
2022-08-16T18:49:36.410Z,100531.22
2022-08-16T18:55:01.724Z,100540.63
2022-08-16T19:00:01.009Z,100543.03
2022-08-16T19:05:05.158Z,100543.44
2022-08-16T19:10:08.902Z,100539.44
2022-08-16T19:15:16.205Z,100540.59
2022-08-16T19:20:22.819Z,100556.06
2022-08-16T19:25:47.267Z,100555.28
2022-08-16T19:30:48.802Z,100562.66
2022-08-16T19:35:52.749Z,100575.81
2022-08-16T19:40:54.587Z,100570.75
2022-08-16T19:45:56.681Z,100576.56
2022-08-16T19:51:00.423Z,100577.75
2022-08-16T19:56:02.221Z,100571.78
2022-08-16T20:01:03.939Z,100572.81
2022-08-16T20:06:07.607Z,100585.69
2022-08-16T20:11:14.940Z,100589.34
2022-08-16T20:16:17.812Z,100580.28
2022-08-16T20:21:21.903Z,100592.50
2022-08-16T20:26:27.214Z,100596.91
2022-08-16T20:31:28.946Z,100601.38
2022-08-16T20:36:32.481Z,100608.63
2022-08-16T20:41:34.481Z,100606.69
2022-08-16T20:46:39.795Z,100604.22
2022-08-16T20:51:49.519Z,100601.69
2022-08-16T20:56:54.750Z,100607.47
2022-08-16T21:01:58.076Z,100608.88
2022-08-16T21:07:01.618Z,100599.69
2022-08-16T21:12:06.286Z,100601.13
2022-08-16T21:17:09.794Z,100598.25
2022-08-16T21:22:18.373Z,100597.53
2022-08-16T21:27:20.553Z,100601.72
2022-08-16T21:32:35.386Z,100596.97
2022-08-16T21:37:40.537Z,100599.41
2022-08-16T21:42:43.315Z,100598.53
2022-08-16T21:47:45.569Z,100608.13
2022-08-16T21:52:49.358Z,100599.66
2022-08-16T21:57:51.499Z,100602.84
2022-08-16T22:02:54.508Z,100610.00
2022-08-16T22:08:01.304Z,100617.50
2022-08-16T22:13:04.936Z,100610.13
2022-08-16T22:18:06.909Z,100619.81
2022-08-16T22:23:12.706Z,100624.88
2022-08-16T22:28:15.964Z,100627.56
2022-08-16T22:33:20.889Z,100638.28
2022-08-16T22:38:54.455Z,100639.69
2022-08-16T22:43:47.563Z,100642.88
2022-08-16T22:48:49.817Z,100637.81
2022-08-16T22:53:53.737Z,100640.47
2022-08-16T22:58:56.957Z,100641.63
2022-08-16T23:03:59.233Z,100645.50
2022-08-16T23:09:03.113Z,100644.81
2022-08-16T23:14:06.354Z,100637.78
2022-08-16T23:19:11.249Z,100641.31
2022-08-16T23:24:16.819Z,100635.09
2022-08-16T23:29:23.843Z,100637.25
2022-08-16T23:34:30.041Z,100632.03
2022-08-16T23:39:33.178Z,100634.00
2022-08-16T23:44:56.993Z,100634.91
2022-08-16T23:50:03.504Z,100627.47
2022-08-16T23:55:08.877Z,100632.53
